Time;durP1;ratioP1;P1;durP2;ratioP2;P2;SDS_P1;SDS_P2;PMS_P1;PMS_P2;Temp;Humidity;BMP_temperature;BMP_pressure;BME280_temperature;BME280_humidity;BME280_pressure;Samples;Min_cycle;Max_cycle;Signal;HPM_P1;HPM_P2
2023/05/20 00:02:03;;;;;;;5.60;5.10;;;11.90;99.90;;;;;;4999402;28;20284;-69
2023/05/20 00:04:29;;;;;;;6.30;5.13;;;12.00;99.90;;;;;;4999082;28;20172;-69
2023/05/20 00:06:54;;;;;;;5.20;4.70;;;12.00;99.90;;;;;;4995557;28;20245;-69
2023/05/20 00:09:20;;;;;;;7.57;5.80;;;12.00;99.90;;;;;;4995518;28;20630;-69
2023/05/20 00:11:46;;;;;;;5.13;4.67;;;12.00;99.90;;;;;;4991642;28;20195;-69
2023/05/20 00:14:11;;;;;;;6.10;5.10;;;12.00;99.90;;;;;;4992105;28;20180;-70
2023/05/20 00:16:37;;;;;;;7.23;5.87;;;12.10;99.90;;;;;;4994989;28;20275;-69
2023/05/20 00:19:02;;;;;;;6.00;5.40;;;12.00;99.90;;;;;;4995190;28;20242;-70
2023/05/20 00:21:28;;;;;;;7.50;5.50;;;12.00;99.90;;;;;;4999965;28;20211;-70
2023/05/20 00:23:55;;;;;;;5.30;4.90;;;12.00;99.90;;;;;;4994228;28;20179;-70
2023/05/20 00:26:21;;;;;;;6.53;5.93;;;12.00;99.90;;;;;;4995608;28;20264;-70
2023/05/20 00:28:47;;;;;;;6.50;6.00;;;12.10;99.90;;;;;;4992663;28;20437;-70
2023/05/20 00:31:12;;;;;;;7.60;6.97;;;12.10;99.90;;;;;;4994162;28;20820;-70
2023/05/20 00:33:38;;;;;;;5.37;4.87;;;12.30;99.90;;;;;;4993818;28;20730;-71
2023/05/20 00:36:04;;;;;;;9.60;6.00;;;12.30;99.90;;;;;;4994377;28;20241;-69
2023/05/20 00:38:29;;;;;;;9.30;5.80;;;12.40;99.90;;;;;;4993355;28;20231;-69
2023/05/20 00:40:55;;;;;;;7.43;6.57;;;12.40;99.90;;;;;;4993614;28;20482;-70
2023/05/20 00:43:21;;;;;;;7.97;7.27;;;12.50;99.90;;;;;;4995297;28;20259;-69
2023/05/20 00:45:47;;;;;;;7.87;5.60;;;12.40;99.90;;;;;;4992987;28;20184;-70
2023/05/20 00:48:13;;;;;;;6.37;5.80;;;12.40;99.90;;;;;;4991669;28;20438;-70
2023/05/20 00:50:39;;;;;;;6.00;5.43;;;12.40;99.90;;;;;;4993483;28;20199;-69
2023/05/20 00:53:05;;;;;;;8.43;6.60;;;12.40;99.90;;;;;;4994122;28;20190;-70
2023/05/20 00:55:31;;;;;;;8.47;5.80;;;12.40;99.90;;;;;;4994089;28;20434;-70
2023/05/20 00:57:57;;;;;;;8.60;6.90;;;12.40;99.90;;;;;;4993433;28;20438;-70
2023/05/20 01:00:23;;;;;;;6.83;6.23;;;12.40;99.90;;;;;;4991623;28;20474;-69
2023/05/20 01:02:48;;;;;;;7.13;6.43;;;12.40;99.90;;;;;;4992816;28;20430;-69
2023/05/20 01:05:14;;;;;;;6.47;5.70;;;12.40;99.90;;;;;;4999173;28;20245;-70
2023/05/20 01:07:40;;;;;;;6.60;5.67;;;12.40;99.90;;;;;;5002268;28;20241;-71
2023/05/20 01:10:06;;;;;;;8.10;6.80;;;12.40;99.90;;;;;;4989582;28;20572;-69
2023/05/20 01:12:41;;;;;;;5.70;5.30;;;12.40;99.90;;;;;;4992640;28;20442;-70
2023/05/20 01:15:11;;;;;;;7.10;6.60;;;12.40;99.90;;;;;;4984559;28;20770;-70
2023/05/20 01:17:43;;;;;;;6.53;5.93;;;12.50;99.90;;;;;;4993394;28;20431;-70
2023/05/20 01:20:10;;;;;;;10.93;6.60;;;12.40;99.90;;;;;;4992692;28;20478;-70
2023/05/20 01:22:46;;;;;;;9.17;6.37;;;12.50;99.90;;;;;;4992558;28;20489;-70
2023/05/20 01:25:12;;;;;;;7.13;6.63;;;12.50;99.90;;;;;;4986883;28;20807;-69
2023/05/20 01:27:38;;;;;;;6.40;5.90;;;12.50;99.90;;;;;;4993415;28;20435;-70
2023/05/20 01:30:04;;;;;;;6.43;5.83;;;12.50;99.90;;;;;;4990037;28;20250;-70
2023/05/20 01:32:37;;;;;;;6.27;5.70;;;12.50;99.90;;;;;;4991456;28;20183;-69
2023/05/20 01:35:04;;;;;;;7.17;6.57;;;12.60;99.90;;;;;;4993897;28;20445;-70
2023/05/20 01:37:31;;;;;;;6.70;6.20;;;12.60;99.90;;;;;;4993290;28;20435;-70
2023/05/20 01:39:57;;;;;;;6.50;6.00;;;12.50;99.90;;;;;;4990351;28;20466;-70
2023/05/20 01:42:26;;;;;;;6.43;5.83;;;12.50;99.90;;;;;;4993493;28;20437;-70
2023/05/20 01:44:52;;;;;;;6.23;5.73;;;12.50;99.90;;;;;;4989485;28;20862;-71
2023/05/20 01:47:18;;;;;;;6.30;5.70;;;12.50;99.90;;;;;;4992185;28;20518;-69
2023/05/20 01:49:45;;;;;;;6.83;6.23;;;12.50;99.90;;;;;;4989064;28;20270;-71
2023/05/20 01:52:10;;;;;;;10.03;6.50;;;12.50;99.90;;;;;;4990809;28;20249;-69
2023/05/20 01:54:36;;;;;;;7.13;6.43;;;12.60;99.90;;;;;;4992792;28;20442;-70
2023/05/20 01:57:02;;;;;;;6.43;5.93;;;12.60;99.90;;;;;;5005985;28;20696;-70
2023/05/20 01:59:27;;;;;;;7.50;6.70;;;12.60;99.90;;;;;;4996839;28;20187;-70
2023/05/20 02:01:53;;;;;;;6.90;6.30;;;12.60;99.90;;;;;;4992365;28;20208;-70
2023/05/20 02:04:20;;;;;;;6.17;5.67;;;12.50;99.90;;;;;;4992695;28;20286;-70
2023/05/20 02:06:45;;;;;;;6.47;5.80;;;12.50;99.90;;;;;;5001544;28;20309;-69
2023/05/20 02:09:11;;;;;;;7.20;6.13;;;12.60;99.90;;;;;;5000216;28;20512;-69
2023/05/20 02:11:37;;;;;;;5.87;5.37;;;12.50;99.90;;;;;;4998939;28;20200;-71
2023/05/20 02:14:02;;;;;;;6.20;5.80;;;12.50;99.90;;;;;;4992096;28;20488;-70
2023/05/20 02:16:28;;;;;;;6.30;5.70;;;12.50;99.90;;;;;;4993237;28;20263;-70
2023/05/20 02:18:53;;;;;;;6.17;5.63;;;12.50;99.90;;;;;;5007348;28;20652;-70
2023/05/20 02:21:20;;;;;;;7.33;6.60;;;12.40;99.90;;;;;;5000527;28;20226;-70
2023/05/20 02:23:45;;;;;;;7.90;6.60;;;12.40;99.90;;;;;;5001440;28;20270;-70
2023/05/20 02:26:11;;;;;;;6.43;5.57;;;12.50;99.90;;;;;;5003562;28;20516;-70
2023/05/20 02:28:43;;;;;;;7.30;6.60;;;12.40;99.90;;;;;;4996703;28;20271;-70
2023/05/20 02:31:09;;;;;;;7.67;7.07;;;12.20;99.90;;;;;;4991836;28;20231;-70
2023/05/20 02:33:34;;;;;;;6.90;6.27;;;12.30;99.90;;;;;;4998056;28;20473;-70
2023/05/20 02:36:00;;;;;;;7.23;6.53;;;12.20;99.90;;;;;;5003733;28;20186;-70
2023/05/20 02:38:25;;;;;;;8.63;7.13;;;12.20;99.90;;;;;;4994469;28;20238;-70
2023/05/20 02:40:51;;;;;;;7.87;7.10;;;12.10;99.90;;;;;;4995372;28;20211;-69
2023/05/20 02:43:16;;;;;;;8.30;7.60;;;12.10;99.90;;;;;;5006251;28;20672;-69
2023/05/20 02:45:42;;;;;;;7.33;6.73;;;12.10;99.90;;;;;;4998186;28;20183;-70
2023/05/20 02:48:07;;;;;;;7.13;6.53;;;12.10;99.90;;;;;;4996091;28;20608;-70
2023/05/20 02:50:33;;;;;;;6.90;6.30;;;12.00;99.90;;;;;;4992291;28;20218;-70
2023/05/20 02:52:58;;;;;;;7.80;7.07;;;12.00;99.90;;;;;;4995478;28;20201;-70
2023/05/20 02:55:24;;;;;;;7.63;6.27;;;12.00;99.90;;;;;;5004616;28;20262;-70
2023/05/20 02:57:49;;;;;;;8.37;7.27;;;11.90;99.90;;;;;;4999873;28;20238;-69
2023/05/20 03:00:15;;;;;;;7.23;6.50;;;11.90;99.90;;;;;;4999930;28;20214;-70
2023/05/20 03:02:41;;;;;;;8.00;7.40;;;11.80;99.90;;;;;;4991600;28;20194;-69
2023/05/20 03:05:07;;;;;;;11.27;7.17;;;11.80;99.90;;;;;;4996593;28;20175;-70
2023/05/20 03:07:35;;;;;;;10.20;6.87;;;11.80;99.90;;;;;;5000457;28;20313;-70
2023/05/20 03:10:01;;;;;;;7.93;7.17;;;11.80;99.90;;;;;;4999211;28;20439;-70
2023/05/20 03:12:27;;;;;;;8.93;8.13;;;11.90;99.90;;;;;;4998835;28;20446;-69
2023/05/20 03:14:54;;;;;;;8.17;6.90;;;11.90;99.90;;;;;;5003087;28;20447;-70
2023/05/20 03:17:20;;;;;;;8.50;7.73;;;11.90;99.90;;;;;;5001128;28;20544;-69
2023/05/20 03:19:46;;;;;;;7.93;7.13;;;11.90;99.90;;;;;;4986230;28;20810;-70
2023/05/20 03:22:12;;;;;;;7.00;6.50;;;12.00;99.90;;;;;;4992024;28;20520;-70
2023/05/20 03:24:37;;;;;;;8.00;7.13;;;12.00;99.90;;;;;;5003637;28;20229;-70
2023/05/20 03:27:03;;;;;;;8.70;7.07;;;11.90;99.90;;;;;;4995067;28;20181;-70
2023/05/20 03:29:30;;;;;;;7.30;6.70;;;11.90;99.90;;;;;;4990378;28;20186;-69
2023/05/20 03:31:55;;;;;;;7.30;6.63;;;11.80;99.90;;;;;;4996511;28;20655;-69
2023/05/20 03:34:21;;;;;;;7.73;7.13;;;11.80;99.90;;;;;;4989687;28;20439;-70
2023/05/20 03:36:47;;;;;;;7.73;7.03;;;11.80;99.90;;;;;;4992826;28;20187;-70
2023/05/20 03:39:12;;;;;;;7.93;7.00;;;11.70;99.90;;;;;;5002826;28;20270;-69
2023/05/20 03:41:38;;;;;;;8.93;7.80;;;11.60;99.90;;;;;;5003363;28;20217;-69
2023/05/20 03:44:03;;;;;;;7.37;6.77;;;11.50;99.90;;;;;;4996157;28;20542;-70
2023/05/20 03:46:31;;;;;;;8.57;7.77;;;11.50;99.90;;;;;;4992573;28;20183;-70
2023/05/20 03:48:56;;;;;;;7.70;7.10;;;11.50;99.90;;;;;;4990872;28;20178;-69
2023/05/20 03:51:22;;;;;;;8.57;7.80;;;11.50;99.90;;;;;;4985346;28;20446;-71
2023/05/20 03:53:47;;;;;;;8.30;7.70;;;11.60;99.90;;;;;;4988707;28;20665;-70
2023/05/20 03:56:13;;;;;;;8.10;7.30;;;11.60;99.90;;;;;;4990822;28;20215;-69
2023/05/20 03:58:38;;;;;;;7.50;6.80;;;11.70;99.90;;;;;;4991439;28;20255;-70
2023/05/20 04:01:04;;;;;;;7.93;7.13;;;11.80;99.90;;;;;;4998714;28;20207;-70
2023/05/20 04:03:30;;;;;;;8.00;7.20;;;11.80;99.90;;;;;;4996636;28;20712;-70
2023/05/20 04:05:55;;;;;;;8.13;7.53;;;11.90;99.90;;;;;;4989780;28;20195;-70
2023/05/20 04:08:24;;;;;;;7.20;6.60;;;11.90;99.90;;;;;;4985430;28;20207;-72
2023/05/20 04:10:50;;;;;;;7.97;7.20;;;11.90;99.90;;;;;;4989687;28;20199;-70
2023/05/20 04:13:16;;;;;;;8.37;7.50;;;11.90;99.90;;;;;;4989862;28;20446;-71
2023/05/20 04:15:41;;;;;;;8.03;7.23;;;11.90;99.90;;;;;;4986480;28;20186;-70
2023/05/20 04:18:07;;;;;;;9.90;7.17;;;11.90;99.90;;;;;;4991848;28;20209;-69
2023/05/20 04:20:33;;;;;;;7.10;6.50;;;12.00;99.90;;;;;;4994308;28;20289;-70
2023/05/20 04:22:58;;;;;;;7.87;7.17;;;12.00;99.90;;;;;;4992542;28;20183;-70
2023/05/20 04:25:24;;;;;;;8.10;7.50;;;12.00;99.90;;;;;;4998653;28;20514;-70
2023/05/20 04:27:52;;;;;;;7.37;6.73;;;12.10;99.90;;;;;;4998946;28;20208;-69
2023/05/20 04:30:18;;;;;;;7.90;7.10;;;12.10;99.90;;;;;;4999528;28;20515;-69
2023/05/20 04:32:44;;;;;;;6.70;6.20;;;12.20;99.90;;;;;;4987911;28;20447;-70
2023/05/20 04:35:12;;;;;;;7.83;7.23;;;12.20;99.90;;;;;;4988494;28;20207;-71
2023/05/20 04:37:38;;;;;;;7.77;7.03;;;12.40;99.90;;;;;;4990881;28;20641;-70
2023/05/20 04:40:08;;;;;;;7.30;6.70;;;12.40;99.90;;;;;;5001935;28;20503;-70
2023/05/20 04:42:33;;;;;;;6.40;5.97;;;12.50;99.90;;;;;;5004860;28;20660;-70
2023/05/20 04:45:00;;;;;;;9.13;6.73;;;12.60;99.90;;;;;;4993750;28;20441;-71
2023/05/20 04:47:27;;;;;;;7.83;7.23;;;12.70;99.90;;;;;;4997462;28;20263;-70
2023/05/20 04:49:56;;;;;;;7.90;7.20;;;12.70;99.90;;;;;;4994875;28;20501;-70
2023/05/20 04:52:22;;;;;;;8.27;7.67;;;12.70;99.90;;;;;;4992161;28;20885;-70
2023/05/20 04:54:49;;;;;;;8.23;7.53;;;12.60;99.90;;;;;;4993902;28;20442;-70
2023/05/20 04:57:16;;;;;;;7.60;7.00;;;12.70;99.90;;;;;;4996561;28;20434;-70
2023/05/20 04:59:41;;;;;;;8.23;7.43;;;12.70;99.90;;;;;;5002661;28;20516;-71
2023/05/20 05:02:07;;;;;;;9.60;7.07;;;12.70;99.90;;;;;;5000928;28;20800;-69
2023/05/20 05:04:32;;;;;;;8.07;7.30;;;12.80;99.90;;;;;;4994970;28;20175;-70
2023/05/20 05:06:58;;;;;;;7.43;6.70;;;13.00;99.90;;;;;;5002182;28;20183;-70
2023/05/20 05:09:23;;;;;;;18.43;7.30;;;13.10;99.90;;;;;;4997076;28;20172;-70
2023/05/20 05:11:49;;;;;;;8.67;7.63;;;13.30;99.90;;;;;;5000520;28;20196;-69
2023/05/20 05:14:15;;;;;;;7.60;6.90;;;13.50;99.90;;;;;;4993760;28;20186;-70
2023/05/20 05:16:40;;;;;;;6.87;6.37;;;13.60;99.90;;;;;;4993462;28;20187;-70
2023/05/20 05:19:07;;;;;;;8.10;7.00;;;13.70;99.90;;;;;;4993658;28;20962;-69
2023/05/20 05:21:33;;;;;;;7.07;6.57;;;13.80;99.90;;;;;;5001600;28;20207;-71
2023/05/20 05:23:58;;;;;;;7.53;6.93;;;13.80;99.90;;;;;;4993529;28;20434;-71
2023/05/20 05:26:25;;;;;;;10.37;9.30;;;13.80;99.90;;;;;;4999691;28;20583;-71
2023/05/20 05:28:51;;;;;;;7.37;6.77;;;13.90;99.90;;;;;;5002011;28;20222;-71
2023/05/20 05:31:16;;;;;;;7.40;6.80;;;14.00;99.90;;;;;;4999810;28;20472;-73
2023/05/20 05:33:42;;;;;;;10.30;6.67;;;14.10;99.90;;;;;;4985158;28;20455;-74
2023/05/20 05:36:07;;;;;;;8.20;7.00;;;14.20;99.90;;;;;;4989842;28;20191;-75
2023/05/20 05:38:33;;;;;;;7.37;6.77;;;14.40;99.90;;;;;;4992008;28;20191;-74
2023/05/20 05:40:59;;;;;;;7.77;7.07;;;14.40;99.90;;;;;;4992813;28;20318;-74
2023/05/20 05:43:24;;;;;;;7.27;6.70;;;14.50;99.90;;;;;;4991854;28;20180;-74
2023/05/20 05:45:50;;;;;;;7.50;6.80;;;14.70;99.90;;;;;;4993389;28;20183;-74
2023/05/20 05:48:15;;;;;;;8.27;7.63;;;14.80;99.90;;;;;;4988940;28;20212;-78
2023/05/20 05:50:45;;;;;;;8.00;7.40;;;14.90;99.90;;;;;;4993450;28;20234;-77
2023/05/20 05:53:11;;;;;;;8.90;8.20;;;15.00;99.90;;;;;;4994783;28;20184;-75
2023/05/20 05:55:36;;;;;;;7.30;6.70;;;15.10;99.90;;;;;;4986037;28;20442;-75
2023/05/20 05:58:05;;;;;;;7.00;6.50;;;15.10;99.90;;;;;;5000621;28;20291;-77
2023/05/20 06:00:31;;;;;;;7.20;6.50;;;15.20;99.90;;;;;;4977258;28;20220;-76
2023/05/20 06:02:57;;;;;;;7.90;7.20;;;15.10;99.90;;;;;;4988680;28;20813;-77
2023/05/20 06:05:22;;;;;;;8.17;7.57;;;15.20;99.90;;;;;;4999485;28;20187;-76
2023/05/20 06:07:48;;;;;;;8.17;7.37;;;15.30;99.90;;;;;;4992602;28;20439;-76
2023/05/20 06:10:14;;;;;;;9.00;7.30;;;15.40;99.90;;;;;;4995508;28;20205;-75
2023/05/20 06:12:39;;;;;;;9.43;8.03;;;15.50;99.90;;;;;;5002575;28;20546;-75
2023/05/20 06:15:06;;;;;;;7.53;6.83;;;15.70;99.90;;;;;;4999154;28;20194;-75
2023/05/20 06:17:31;;;;;;;8.10;7.50;;;15.70;99.90;;;;;;4995104;28;20301;-76
2023/05/20 06:19:57;;;;;;;8.30;7.50;;;15.90;99.90;;;;;;4999921;28;20479;-75
2023/05/20 06:22:23;;;;;;;10.57;7.83;;;15.90;99.90;;;;;;5005580;28;20203;-75
2023/05/20 06:24:48;;;;;;;7.40;6.80;;;16.10;99.90;;;;;;5013765;28;20186;-77
2023/05/20 06:27:14;;;;;;;8.43;7.70;;;16.20;99.90;;;;;;4988287;28;20180;-77
2023/05/20 06:29:39;;;;;;;7.27;6.67;;;16.30;99.90;;;;;;4982357;28;20199;-75
2023/05/20 06:32:05;;;;;;;7.60;7.00;;;16.30;99.90;;;;;;4985799;28;20199;-76
2023/05/20 06:34:31;;;;;;;7.27;6.70;;;16.40;99.90;;;;;;4991571;28;20191;-77
2023/05/20 06:36:57;;;;;;;7.43;6.87;;;16.50;99.90;;;;;;5002050;28;20443;-76
2023/05/20 06:39:23;;;;;;;8.00;7.40;;;16.60;99.90;;;;;;4998874;28;20189;-77
2023/05/20 06:41:50;;;;;;;8.43;7.47;;;16.70;99.90;;;;;;4990985;28;20475;-77
2023/05/20 06:44:16;;;;;;;8.60;7.70;;;16.70;99.90;;;;;;4999524;28;20180;-77
2023/05/20 06:46:42;;;;;;;8.20;7.50;;;16.70;99.90;;;;;;4991005;28;20446;-77
2023/05/20 06:49:07;;;;;;;8.50;7.80;;;16.80;99.90;;;;;;4991445;28;20191;-75
2023/05/20 06:51:32;;;;;;;8.00;7.40;;;16.90;99.90;;;;;;4989973;28;20227;-77
2023/05/20 06:53:58;;;;;;;10.50;8.07;;;16.90;99.90;;;;;;4992716;28;20189;-74
2023/05/20 06:56:24;;;;;;;8.67;7.97;;;16.60;99.90;;;;;;5000461;28;20187;-74
2023/05/20 06:58:49;;;;;;;10.73;7.97;;;16.90;99.90;;;;;;5010415;28;20183;-74
2023/05/20 07:01:15;;;;;;;9.00;7.60;;;17.00;99.90;;;;;;5013076;28;20235;-74
2023/05/20 07:03:41;;;;;;;8.30;7.60;;;17.00;99.90;;;;;;5012992;28;20274;-73
2023/05/20 07:06:07;;;;;;;9.83;8.97;;;17.00;99.90;;;;;;5012230;28;20173;-72
2023/05/20 07:08:32;;;;;;;9.60;8.67;;;17.20;99.90;;;;;;5012658;28;20414;-74
2023/05/20 07:10:58;;;;;;;8.13;7.43;;;17.40;99.90;;;;;;5013029;28;20203;-74
2023/05/20 07:13:24;;;;;;;7.17;6.60;;;17.60;99.90;;;;;;5012873;28;20205;-73
2023/05/20 07:15:50;;;;;;;7.90;6.60;;;17.70;99.90;;;;;;5012813;28;20166;-74
2023/05/20 07:18:15;;;;;;;8.60;7.67;;;17.60;99.90;;;;;;5012406;28;20436;-74
2023/05/20 07:20:41;;;;;;;7.73;7.03;;;17.80;99.90;;;;;;5012340;28;20221;-75
2023/05/20 07:23:07;;;;;;;11.90;9.90;;;17.90;99.90;;;;;;5012703;28;20175;-74
2023/05/20 07:25:32;;;;;;;8.73;7.93;;;18.20;99.90;;;;;;5012763;28;20171;-74
2023/05/20 07:27:59;;;;;;;9.57;8.27;;;18.40;99.90;;;;;;5012494;28;20179;-72
2023/05/20 07:30:25;;;;;;;8.70;8.10;;;18.50;99.90;;;;;;5012342;28;20191;-73
2023/05/20 07:32:50;;;;;;;8.73;8.10;;;18.40;99.90;;;;;;5012393;28;20417;-74
2023/05/20 07:35:16;;;;;;;8.33;7.60;;;18.30;99.90;;;;;;5012514;28;20563;-74
2023/05/20 07:37:42;;;;;;;8.10;7.40;;;18.30;99.90;;;;;;5012631;28;20220;-75
2023/05/20 07:40:08;;;;;;;8.93;8.23;;;18.40;99.90;;;;;;5011931;28;20198;-74
2023/05/20 07:42:34;;;;;;;8.43;7.83;;;18.60;99.90;;;;;;5012370;28;20175;-73
2023/05/20 07:44:59;;;;;;;9.20;8.40;;;18.80;99.90;;;;;;5012386;28;20418;-75
2023/05/20 07:47:25;;;;;;;8.60;7.90;;;18.80;99.90;;;;;;5012311;28;20637;-74
2023/05/20 07:49:50;;;;;;;7.80;7.10;;;18.80;99.90;;;;;;5011852;28;20178;-74
2023/05/20 07:52:16;;;;;;;7.67;7.10;;;19.00;99.90;;;;;;5012139;28;20265;-75
2023/05/20 07:54:41;;;;;;;8.60;7.80;;;19.20;99.90;;;;;;5012207;28;20170;-75
2023/05/20 07:57:07;;;;;;;8.70;8.00;;;19.40;99.90;;;;;;5012174;28;20171;-74
2023/05/20 07:59:33;;;;;;;7.73;6.93;;;19.60;99.90;;;;;;5011978;28;20178;-73
2023/05/20 08:01:58;;;;;;;8.20;7.60;;;19.70;99.90;;;;;;5012104;28;20187;-74
2023/05/20 08:04:25;;;;;;;8.87;8.10;;;19.70;99.90;;;;;;5012092;28;20245;-74
2023/05/20 08:06:51;;;;;;;8.23;7.53;;;19.60;99.90;;;;;;5011996;28;20167;-74
2023/05/20 08:09:18;;;;;;;7.80;7.20;;;19.50;99.90;;;;;;5011872;28;20417;-74
2023/05/20 08:11:43;;;;;;;12.23;8.63;;;19.30;99.90;;;;;;5012075;28;20528;-74
2023/05/20 08:14:09;;;;;;;9.23;8.43;;;19.20;99.90;;;;;;5012214;28;20445;-74
2023/05/20 08:16:35;;;;;;;7.97;7.30;;;19.10;99.90;;;;;;5012192;28;20707;-73
2023/05/20 08:19:00;;;;;;;8.20;7.60;;;19.10;99.90;;;;;;5015669;28;20293;-74
2023/05/20 08:21:26;;;;;;;8.40;7.80;;;19.00;99.90;;;;;;5015676;28;20616;-74
2023/05/20 08:23:51;;;;;;;9.63;7.27;;;19.00;99.90;;;;;;5015865;28;20297;-74
2023/05/20 08:26:17;;;;;;;8.73;7.30;;;18.90;99.90;;;;;;5015805;28;20249;-73
2023/05/20 08:28:43;;;;;;;8.70;7.80;;;18.90;99.90;;;;;;5015664;28;20223;-74
2023/05/20 08:31:09;;;;;;;7.80;7.20;;;18.80;99.90;;;;;;5015745;28;20205;-74
2023/05/20 08:33:35;;;;;;;8.83;8.03;;;18.70;99.90;;;;;;5015732;28;20171;-75
2023/05/20 08:36:00;;;;;;;8.90;8.10;;;18.60;99.90;;;;;;5015717;28;20926;-74
2023/05/20 08:38:26;;;;;;;7.90;7.40;;;18.70;99.90;;;;;;5015238;28;20206;-73
2023/05/20 08:40:56;;;;;;;8.80;8.10;;;19.00;99.90;;;;;;5015436;28;20595;-75
2023/05/20 08:43:22;;;;;;;8.07;7.33;;;19.40;99.90;;;;;;5015768;28;20538;-74
2023/05/20 08:45:48;;;;;;;9.13;8.43;;;19.70;99.90;;;;;;5015384;28;20421;-74
2023/05/20 08:48:16;;;;;;;7.37;6.87;;;20.00;99.90;;;;;;5015140;28;20464;-75
2023/05/20 08:50:42;;;;;;;8.17;7.47;;;20.00;99.90;;;;;;5015294;28;20246;-74
2023/05/20 08:53:08;;;;;;;7.73;7.13;;;20.30;99.90;;;;;;5015255;28;20833;-75
2023/05/20 08:55:42;;;;;;;21.07;8.93;;;20.70;99.90;;;;;;5015264;28;20476;-74
2023/05/20 08:58:09;;;;;;;22.70;8.40;;;21.00;99.90;;;;;;5015113;28;20181;-74
2023/05/20 09:00:35;;;;;;;7.63;6.93;;;21.10;99.90;;;;;;5015050;28;20469;-74
2023/05/20 09:03:00;;;;;;;7.73;7.00;;;21.20;99.90;;;;;;5015309;28;20425;-74
2023/05/20 09:05:26;;;;;;;7.53;6.90;;;21.50;99.90;;;;;;5015343;28;20417;-75
2023/05/20 09:07:52;;;;;;;8.20;7.50;;;21.80;99.90;;;;;;5015103;28;20509;-74
2023/05/20 09:10:19;;;;;;;7.87;7.27;;;21.80;99.90;;;;;;5014711;28;20190;-75
2023/05/20 09:12:44;;;;;;;7.20;6.70;;;21.90;99.90;;;;;;5014920;28;20174;-75
2023/05/20 09:15:10;;;;;;;8.10;7.50;;;22.10;99.90;;;;;;5013571;28;20418;-75
2023/05/20 09:17:37;;;;;;;8.70;8.00;;;22.10;99.90;;;;;;5015049;28;20506;-75
2023/05/20 09:20:10;;;;;;;7.80;7.10;;;22.30;99.90;;;;;;5014265;28;20458;-74
2023/05/20 09:22:37;;;;;;;6.70;6.07;;;22.50;99.90;;;;;;5013675;28;20787;-75
2023/05/20 09:25:03;;;;;;;7.57;6.93;;;22.70;99.90;;;;;;5014675;28;20501;-75
2023/05/20 09:27:28;;;;;;;6.97;6.37;;;22.70;99.90;;;;;;5014505;28;20449;-74
2023/05/20 09:29:54;;;;;;;7.33;6.83;;;22.90;99.90;;;;;;5014337;28;20183;-74
2023/05/20 09:32:23;;;;;;;7.00;6.50;;;23.30;99.90;;;;;;5014814;28;20197;-74
2023/05/20 09:34:48;;;;;;;9.10;8.20;;;23.40;99.90;;;;;;5014480;28;20575;-75
2023/05/20 09:37:18;;;;;;;7.93;7.23;;;23.40;99.90;;;;;;5014677;28;20472;-75
2023/05/20 09:40:03;;;;;;;8.80;8.10;;;23.40;99.90;;;;;;5014103;28;20274;-74
2023/05/20 09:42:39;;;;;;;7.93;7.13;;;23.30;99.90;;;;;;5014483;28;20492;-75
2023/05/20 09:45:08;;;;;;;7.43;6.73;;;22.90;99.90;;;;;;5014504;28;20823;-75
2023/05/20 09:47:39;;;;;;;7.90;7.30;;;22.90;99.90;;;;;;5014364;28;20414;-74
2023/05/20 09:50:07;;;;;;;7.90;6.93;;;22.70;99.90;;;;;;5013803;28;20424;-74
2023/05/20 09:52:36;;;;;;;7.57;6.83;;;22.80;99.90;;;;;;5014242;28;20442;-74
2023/05/20 09:55:04;;;;;;;7.73;7.13;;;22.80;99.90;;;;;;5014205;28;20768;-75
2023/05/20 09:57:32;;;;;;;8.30;6.80;;;23.10;99.90;;;;;;5014331;28;20501;-75
2023/05/20 09:59:58;;;;;;;7.13;6.40;;;24.00;99.90;;;;;;5013662;28;20511;-75
2023/05/20 10:02:24;;;;;;;7.47;6.77;;;24.50;98.90;;;;;;5014083;28;20422;-74
2023/05/20 10:04:52;;;;;;;8.30;7.60;;;24.40;97.80;;;;;;5013934;28;20167;-74
2023/05/20 10:07:30;;;;;;;8.13;7.53;;;24.60;97.20;;;;;;5014086;28;20312;-75
2023/05/20 10:10:24;;;;;;;6.80;6.30;;;24.60;96.30;;;;;;5013609;28;20418;-75
2023/05/20 10:13:03;;;;;;;6.90;6.40;;;25.90;94.20;;;;;;5013896;28;20417;-76
2023/05/20 10:16:11;;;;;;;7.93;7.33;;;27.20;91.20;;;;;;5013831;28;20413;-75
2023/05/20 10:18:37;;;;;;;7.13;6.63;;;28.40;85.20;;;;;;5013506;28;20445;-75
2023/05/20 10:21:02;;;;;;;7.90;7.17;;;28.70;81.40;;;;;;5013452;28;20504;-75
2023/05/20 10:23:29;;;;;;;6.67;6.27;;;28.60;78.80;;;;;;5013527;28;20167;-75
2023/05/20 10:25:56;;;;;;;7.77;6.93;;;29.00;76.60;;;;;;5013813;28;20628;-75
2023/05/20 10:28:34;;;;;;;7.17;6.67;;;29.50;74.10;;;;;;5013215;28;20418;-75
2023/05/20 10:31:00;;;;;;;7.80;7.20;;;30.10;70.20;;;;;;5013472;28;20449;-75
2023/05/20 10:33:27;;;;;;;8.23;7.53;;;30.30;68.80;;;;;;5013424;28;20793;-73
2023/05/20 10:35:53;;;;;;;9.20;7.40;;;30.10;67.30;;;;;;5013466;28;20171;-74
2023/05/20 10:38:20;;;;;;;7.43;6.80;;;29.70;66.80;;;;;;5013133;28;20422;-75
2023/05/20 10:40:46;;;;;;;6.60;6.20;;;29.20;66.90;;;;;;5012559;28;20476;-75
2023/05/20 10:43:13;;;;;;;7.17;6.67;;;28.90;67.10;;;;;;5013467;28;20417;-75
2023/05/20 10:45:49;;;;;;;7.00;6.50;;;28.50;67.20;;;;;;5013264;28;20310;-75
2023/05/20 10:48:26;;;;;;;8.13;6.70;;;27.90;68.90;;;;;;5012843;28;20417;-75
2023/05/20 10:50:56;;;;;;;7.33;6.73;;;27.30;70.50;;;;;;5012988;28;20814;-74
2023/05/20 10:53:23;;;;;;;6.60;6.10;;;26.70;72.10;;;;;;5013113;28;20450;-75
2023/05/20 10:55:51;;;;;;;7.40;6.80;;;26.80;73.20;;;;;;5013128;28;20931;-75
2023/05/20 10:58:18;;;;;;;7.20;6.60;;;27.00;73.70;;;;;;5012937;28;20503;-74
2023/05/20 11:00:44;;;;;;;6.70;6.20;;;28.30;70.40;;;;;;5012849;28;20462;-75
2023/05/20 11:03:11;;;;;;;12.93;7.00;;;30.00;67.30;;;;;;5011604;28;20802;-75
2023/05/20 11:05:38;;;;;;;7.40;6.80;;;31.40;63.20;;;;;;5012883;28;20421;-75
2023/05/20 11:08:06;;;;;;;6.30;5.80;;;32.20;80.20;;;;;;5012780;28;20500;-75
2023/05/20 11:10:33;;;;;;;6.53;6.03;;;32.20;77.30;;;;;;5012504;28;20814;-75
2023/05/20 11:13:01;;;;;;;7.20;6.73;;;31.00;77.20;;;;;;5012747;28;20418;-75
2023/05/20 11:15:27;;;;;;;6.90;6.30;;;29.80;78.60;;;;;;5012722;28;20426;-74
2023/05/20 11:17:58;;;;;;;7.10;6.53;;;28.90;80.60;;;;;;5012522;28;20449;-74
2023/05/20 11:20:24;;;;;;;7.43;6.93;;;28.60;81.50;;;;;;5012224;28;20476;-75
2023/05/20 11:22:51;;;;;;;6.47;6.07;;;27.70;83.30;;;;;;5013072;28;20413;-74
2023/05/20 11:25:17;;;;;;;7.00;6.40;;;27.80;84.30;;;;;;5012651;28;20959;-74
2023/05/20 11:27:44;;;;;;;6.13;5.60;;;29.20;83.40;;;;;;5012523;28;20928;-74
2023/05/20 11:30:14;;;;;;;6.40;6.00;;;30.20;79.30;;;;;;5012211;28;21022;-74
2023/05/20 11:32:40;;;;;;;6.83;6.33;;;31.10;76.80;;;;;;5012669;28;20457;-74
2023/05/20 11:35:06;;;;;;;7.30;6.80;;;30.70;75.40;;;;;;5012584;28;20453;-74
2023/05/20 11:37:34;;;;;;;6.83;6.30;;;30.20;77.10;;;;;;5012594;28;20171;-74
2023/05/20 11:40:07;;;;;;;6.80;6.20;;;30.50;76.20;;;;;;5011993;28;20560;-74
2023/05/20 11:42:34;;;;;;;6.47;5.50;;;30.90;76.80;;;;;;5012542;28;20421;-74
2023/05/20 11:45:00;;;;;;;6.83;6.33;;;30.90;75.90;;;;;;5012364;28;20444;-74
2023/05/20 11:47:28;;;;;;;6.73;6.20;;;31.00;74.60;;;;;;5012238;28;20809;-74
2023/05/20 11:49:55;;;;;;;6.63;6.13;;;30.80;74.10;;;;;;5011992;28;20938;-74
2023/05/20 11:52:20;;;;;;;6.10;5.70;;;30.20;74.60;;;;;;5012169;28;20420;-74
2023/05/20 11:54:52;;;;;;;6.63;6.23;;;29.30;73.90;;;;;;5012373;28;20418;-74
2023/05/20 11:57:18;;;;;;;6.80;6.20;;;28.40;76.20;;;;;;5012279;28;20302;-73
2023/05/20 11:59:44;;;;;;;7.93;5.77;;;27.90;77.70;;;;;;5011892;28;20906;-74
2023/05/20 12:02:09;;;;;;;6.47;5.87;;;27.50;77.10;;;;;;5012064;28;20491;-74
2023/05/20 12:04:35;;;;;;;6.73;6.07;;;27.20;77.70;;;;;;5012291;28;20182;-74
2023/05/20 12:07:02;;;;;;;6.93;6.33;;;27.30;77.20;;;;;;5011577;28;20175;-74
2023/05/20 12:09:28;;;;;;;6.97;5.80;;;28.10;77.60;;;;;;5011804;28;20254;-73
2023/05/20 12:11:55;;;;;;;6.17;5.60;;;29.50;77.10;;;;;;5012027;28;20528;-74
2023/05/20 12:14:21;;;;;;;5.57;5.07;;;31.20;74.80;;;;;;5012032;28;20588;-74
2023/05/20 12:16:46;;;;;;;6.20;5.60;;;32.80;69.60;;;;;;5011903;28;20528;-74
2023/05/20 12:19:12;;;;;;;4.97;4.67;;;32.90;67.30;;;;;;5011729;28;20181;-74
2023/05/20 12:21:37;;;;;;;6.57;6.07;;;33.60;66.20;;;;;;5011778;28;20579;-74
2023/05/20 12:24:05;;;;;;;6.27;5.87;;;34.70;64.40;;;;;;5011975;28;20173;-74
2023/05/20 12:26:32;;;;;;;6.40;6.00;;;35.70;61.30;;;;;;5012044;28;20254;-74
2023/05/20 12:28:57;;;;;;;6.43;6.03;;;36.50;58.60;;;;;;5011687;28;20553;-74
2023/05/20 12:31:23;;;;;;;6.33;5.73;;;37.20;57.80;;;;;;5011755;28;20441;-74
2023/05/20 12:33:49;;;;;;;5.80;5.50;;;37.20;56.20;;;;;;5011852;28;20225;-74
2023/05/20 12:36:15;;;;;;;6.20;5.80;;;36.50;55.70;;;;;;5011847;28;20413;-74
2023/05/20 12:38:40;;;;;;;7.73;7.17;;;35.00;56.50;;;;;;5011481;28;20229;-72
2023/05/20 12:41:06;;;;;;;6.63;5.90;;;33.20;58.20;;;;;;5011779;28;20595;-74
2023/05/20 12:43:32;;;;;;;6.50;6.10;;;32.00;59.20;;;;;;5011824;28;20237;-74